Detall de PIREP

Printer-friendly versionPDF version

[2013/04/01 06:30:00]
Flight IATA:CT1004
Pilot Number:012
Company ICAO:CAT
Aircraft Type:C750/F
PAX:4
Departing Airport: UDYZ
Destination Airport: LEBL
Alternate Airport:LEPA
Online: VATSIM
Route:INDUR UN161 ERZ UL615 BKZ UW702 EKI UM603 POKAV UZ347 MINKA UQ182 MALAV UM601 BALEN/N0404F290 UM601 VERSO
Flight Level:F450
No Slew and time accel
No pause
Crash detect
Detect pilot in Cockpit between each 30 and 45 minutes
06:30 Zero fuel Weight: 23000 Lbs, Fuel Weight: 9411 Lbs
06:30 VATSIM:UDYZ 010600Z VRB02MPS 9999 FEW200 14/00 Q1022 R09/010070 NOSIG
06:30 VATSIM:LEBL 010600Z 02006KT 340V070 6000 SCT005 BKN008 12/11 Q0995 NOSIG
06:30 VOICE CATALONIAN / EASTER CHARTER
06:31 Parking Brakes off
06:36 Take-off
06:36 Take off Weight: 32315 Lbs
06:36 Wind: 000º @ 003 Knots Heading: 271º
06:36 POS N40º 08´ 54´´ E044º 23´ 49´´
06:36 Flaps:3 at 164 Knots
06:36 Gear Up: 165 Knots
06:37 Flaps:2 at 178 Knots
06:37 Flaps:0 at 172 Knots
06:50 TOC
06:50 Fuel Weight: 8711 Lb
06:51 Wind:288º@043 Knots Heading: 266º Ground Speed: 466 Knots Altitude 45272 ft
07:06 Wind:276º@044 Knots Heading: 269º Ground Speed: 448 Knots Altitude 45180 ft
07:21 Wind:257º@046 Knots Heading: 263º Ground Speed: 447 Knots Altitude 45134 ft
07:36 Wind:245º@046 Knots Heading: 275º Ground Speed: 452 Knots Altitude 44993 ft
07:51 Wind:235º@052 Knots Heading: 283º Ground Speed: 460 Knots Altitude 44973 ft
08:06 Wind:225º@055 Knots Heading: 277º Ground Speed: 464 Knots Altitude 44901 ft
08:21 Wind:222º@055 Knots Heading: 257º Ground Speed: 454 Knots Altitude 44845 ft
08:36 Wind:225º@045 Knots Heading: 257º Ground Speed: 460 Knots Altitude 44826 ft
08:51 Wind:241º@040 Knots Heading: 267º Ground Speed: 461 Knots Altitude 44868 ft
09:06 Wind:251º@043 Knots Heading: 272º Ground Speed: 460 Knots Altitude 44908 ft
09:21 Wind:269º@042 Knots Heading: 270º Ground Speed: 458 Knots Altitude 44839 ft
09:36 Wind:280º@042 Knots Heading: 269º Ground Speed: 459 Knots Altitude 44793 ft
09:51 Wind:275º@047 Knots Heading: 267º Ground Speed: 453 Knots Altitude 44786 ft
10:06 Wind:278º@052 Knots Heading: 270º Ground Speed: 449 Knots Altitude 44717 ft
10:21 Wind:276º@054 Knots Heading: 273º Ground Speed: 444 Knots Altitude 44655 ft
10:36 Wind:266º@052 Knots Heading: 276º Ground Speed: 450 Knots Altitude 44547 ft
10:37 TOD
10:37 Fuel Weight: 4784 Lb
10:51 Wind:264º@050 Knots Heading: 262º Ground Speed: 347 Knots Altitude 15419 ft
11:00 Flaps:2 at 190 Knots
11:04 Flaps:3 at 181 Knots
11:06 Wind:311º@005 Knots Heading: 005º Ground Speed: 173 Knots Altitude 2539 ft
11:07 Gear Down: 145 Knots
11:07 Flaps:4 at 141 Knots
11:08 Flaps:5 at 144 Knots
11:10 TouchDown:Rate -209 ft/min Speed: 113 Knots
11:10 VATSIM:LEBL 011100Z 31003KT 280V350 9999 BKN014 SCT055 15/12 Q0996 NOSIG
11:10 Land
11:10 Wind:309º@006 Knots
11:10 Heading: 064º
11:10 Flight Duration: 04:34
11:10 Landing Weight: 27336 Lbs
11:10 POS N41º 18´ 02´´ E002º 05´ 20´´
11:15 Parking brakes on
11:15 Block to Block Duration: 04:44
11:15 Final Fuel: 4287 Lbls
11:15 Spent Fuel: 5123 Lbls
11:15 Flight Length: 1973 NM
11:15 TOD Land Length: 161 NM

Exportar CSV

Powered by Drupal - Modified by Danger4k